sensor_id;sensor_type;location;lat;lon;timestamp;P1;durP1;ratioP1;P2;durP2;ratioP2
60859;SDS011;46694;54.382;9.708;2024-03-02T00:00:46;39.30;;;14.95;;
60859;SDS011;46694;54.382;9.708;2024-03-02T00:03:15;33.30;;;14.77;;
60859;SDS011;46694;54.382;9.708;2024-03-02T00:05:41;35.60;;;15.75;;
60859;SDS011;46694;54.382;9.708;2024-03-02T00:08:07;32.70;;;13.73;;
60859;SDS011;46694;54.382;9.708;2024-03-02T00:13:05;31.40;;;13.43;;
60859;SDS011;46694;54.382;9.708;2024-03-02T00:15:42;30.05;;;13.15;;
60859;SDS011;46694;54.382;9.708;2024-03-02T00:18:13;33.63;;;14.40;;
60859;SDS011;46694;54.382;9.708;2024-03-02T00:20:43;37.30;;;15.63;;
60859;SDS011;46694;54.382;9.708;2024-03-02T00:23:10;30.85;;;14.05;;
60859;SDS011;46694;54.382;9.708;2024-03-02T00:25:42;34.25;;;14.02;;
60859;SDS011;46694;54.382;9.708;2024-03-02T00:28:17;31.48;;;13.38;;
60859;SDS011;46694;54.382;9.708;2024-03-02T00:33:21;33.65;;;15.30;;
60859;SDS011;46694;54.382;9.708;2024-03-02T00:35:47;29.70;;;13.95;;
60859;SDS011;46694;54.382;9.708;2024-03-02T00:38:14;31.52;;;13.35;;
60859;SDS011;46694;54.382;9.708;2024-03-02T00:40:44;32.45;;;13.40;;
60859;SDS011;46694;54.382;9.708;2024-03-02T00:45:49;29.75;;;12.98;;
60859;SDS011;46694;54.382;9.708;2024-03-02T00:48:17;33.17;;;14.55;;
60859;SDS011;46694;54.382;9.708;2024-03-02T00:50:43;31.42;;;15.13;;
60859;SDS011;46694;54.382;9.708;2024-03-02T00:53:10;31.40;;;13.07;;
60859;SDS011;46694;54.382;9.708;2024-03-02T00:55:37;29.15;;;13.00;;
60859;SDS011;46694;54.382;9.708;2024-03-02T00:58:03;30.52;;;13.05;;
60859;SDS011;46694;54.382;9.708;2024-03-02T01:00:29;31.92;;;14.20;;
60859;SDS011;46694;54.382;9.708;2024-03-02T01:02:55;32.50;;;13.90;;
60859;SDS011;46694;54.382;9.708;2024-03-02T01:05:20;32.22;;;13.10;;
60859;SDS011;46694;54.382;9.708;2024-03-02T01:07:46;31.05;;;13.73;;
60859;SDS011;46694;54.382;9.708;2024-03-02T01:10:12;29.90;;;14.23;;
60859;SDS011;46694;54.382;9.708;2024-03-02T01:12:38;33.40;;;14.23;;
60859;SDS011;46694;54.382;9.708;2024-03-02T01:15:04;32.40;;;13.35;;
60859;SDS011;46694;54.382;9.708;2024-03-02T01:17:33;25.35;;;13.18;;
60859;SDS011;46694;54.382;9.708;2024-03-02T01:19:58;32.03;;;13.73;;
60859;SDS011;46694;54.382;9.708;2024-03-02T01:22:24;32.55;;;12.07;;
60859;SDS011;46694;54.382;9.708;2024-03-02T01:24:50;29.33;;;13.63;;
60859;SDS011;46694;54.382;9.708;2024-03-02T01:27:16;29.92;;;12.57;;
60859;SDS011;46694;54.382;9.708;2024-03-02T01:29:42;29.42;;;12.73;;
60859;SDS011;46694;54.382;9.708;2024-03-02T01:32:08;30.90;;;12.88;;
60859;SDS011;46694;54.382;9.708;2024-03-02T01:34:34;28.15;;;12.38;;
60859;SDS011;46694;54.382;9.708;2024-03-02T01:36:59;28.42;;;12.68;;
60859;SDS011;46694;54.382;9.708;2024-03-02T01:39:25;32.97;;;12.80;;
60859;SDS011;46694;54.382;9.708;2024-03-02T01:41:53;30.40;;;12.95;;
60859;SDS011;46694;54.382;9.708;2024-03-02T01:44:19;29.42;;;11.93;;
60859;SDS011;46694;54.382;9.708;2024-03-02T01:46:44;31.13;;;12.88;;
60859;SDS011;46694;54.382;9.708;2024-03-02T01:49:10;28.45;;;12.80;;
60859;SDS011;46694;54.382;9.708;2024-03-02T01:51:36;29.20;;;12.50;;
60859;SDS011;46694;54.382;9.708;2024-03-02T01:54:02;28.45;;;12.55;;
60859;SDS011;46694;54.382;9.708;2024-03-02T01:56:28;32.35;;;13.48;;
60859;SDS011;46694;54.382;9.708;2024-03-02T01:58:54;27.40;;;12.30;;
60859;SDS011;46694;54.382;9.708;2024-03-02T02:01:20;28.10;;;12.63;;
60859;SDS011;46694;54.382;9.708;2024-03-02T02:03:45;29.15;;;12.07;;
60859;SDS011;46694;54.382;9.708;2024-03-02T02:06:11;28.38;;;12.38;;
60859;SDS011;46694;54.382;9.708;2024-03-02T02:08:37;30.35;;;13.13;;
60859;SDS011;46694;54.382;9.708;2024-03-02T02:11:03;27.63;;;12.40;;
60859;SDS011;46694;54.382;9.708;2024-03-02T02:13:29;30.42;;;12.98;;
60859;SDS011;46694;54.382;9.708;2024-03-02T02:15:54;29.92;;;13.40;;
60859;SDS011;46694;54.382;9.708;2024-03-02T02:18:20;28.13;;;12.75;;
60859;SDS011;46694;54.382;9.708;2024-03-02T02:20:46;26.75;;;12.25;;
60859;SDS011;46694;54.382;9.708;2024-03-02T02:23:12;29.75;;;12.55;;
60859;SDS011;46694;54.382;9.708;2024-03-02T02:25:38;32.15;;;14.23;;
60859;SDS011;46694;54.382;9.708;2024-03-02T02:28:04;27.90;;;12.98;;
60859;SDS011;46694;54.382;9.708;2024-03-02T02:30:31;30.35;;;14.52;;
60859;SDS011;46694;54.382;9.708;2024-03-02T02:32:57;26.52;;;12.80;;
60859;SDS011;46694;54.382;9.708;2024-03-02T02:35:24;31.83;;;12.80;;
60859;SDS011;46694;54.382;9.708;2024-03-02T02:37:49;31.95;;;12.60;;
60859;SDS011;46694;54.382;9.708;2024-03-02T02:40:17;32.22;;;14.07;;
60859;SDS011;46694;54.382;9.708;2024-03-02T02:42:46;35.60;;;14.43;;
60859;SDS011;46694;54.382;9.708;2024-03-02T02:45:12;33.80;;;14.25;;
60859;SDS011;46694;54.382;9.708;2024-03-02T02:47:39;33.40;;;14.45;;
60859;SDS011;46694;54.382;9.708;2024-03-02T02:50:08;30.08;;;12.77;;
60859;SDS011;46694;54.382;9.708;2024-03-02T02:52:37;32.45;;;12.98;;
60859;SDS011;46694;54.382;9.708;2024-03-02T02:55:06;30.98;;;13.60;;
60859;SDS011;46694;54.382;9.708;2024-03-02T02:57:34;33.53;;;14.93;;
60859;SDS011;46694;54.382;9.708;2024-03-02T03:00:06;28.85;;;13.05;;
60859;SDS011;46694;54.382;9.708;2024-03-02T03:02:41;31.83;;;12.98;;
60859;SDS011;46694;54.382;9.708;2024-03-02T03:05:12;31.73;;;13.25;;
60859;SDS011;46694;54.382;9.708;2024-03-02T03:07:39;31.10;;;13.82;;
60859;SDS011;46694;54.382;9.708;2024-03-02T03:10:06;28.65;;;13.45;;
60859;SDS011;46694;54.382;9.708;2024-03-02T03:12:33;29.08;;;13.48;;
60859;SDS011;46694;54.382;9.708;2024-03-02T03:15:00;32.58;;;15.00;;
60859;SDS011;46694;54.382;9.708;2024-03-02T03:17:27;33.58;;;13.77;;
60859;SDS011;46694;54.382;9.708;2024-03-02T03:19:53;29.65;;;13.10;;
60859;SDS011;46694;54.382;9.708;2024-03-02T03:22:21;30.25;;;13.50;;
60859;SDS011;46694;54.382;9.708;2024-03-02T03:24:47;30.38;;;14.50;;
60859;SDS011;46694;54.382;9.708;2024-03-02T03:27:12;34.17;;;15.15;;
60859;SDS011;46694;54.382;9.708;2024-03-02T03:29:38;34.38;;;15.20;;
60859;SDS011;46694;54.382;9.708;2024-03-02T03:32:04;28.90;;;13.52;;
60859;SDS011;46694;54.382;9.708;2024-03-02T03:34:35;34.10;;;14.50;;
60859;SDS011;46694;54.382;9.708;2024-03-02T03:37:01;37.90;;;15.77;;
60859;SDS011;46694;54.382;9.708;2024-03-02T03:39:28;31.95;;;14.35;;
60859;SDS011;46694;54.382;9.708;2024-03-02T03:41:54;32.85;;;14.20;;
60859;SDS011;46694;54.382;9.708;2024-03-02T03:44:20;31.02;;;13.10;;
60859;SDS011;46694;54.382;9.708;2024-03-02T03:46:45;34.22;;;14.77;;
60859;SDS011;46694;54.382;9.708;2024-03-02T03:49:11;30.08;;;14.35;;
60859;SDS011;46694;54.382;9.708;2024-03-02T03:51:37;34.65;;;14.30;;
60859;SDS011;46694;54.382;9.708;2024-03-02T03:54:03;32.97;;;14.52;;
60859;SDS011;46694;54.382;9.708;2024-03-02T03:56:28;30.30;;;14.25;;
60859;SDS011;46694;54.382;9.708;2024-03-02T03:58:54;33.70;;;13.77;;
60859;SDS011;46694;54.382;9.708;2024-03-02T04:01:20;29.90;;;14.23;;
60859;SDS011;46694;54.382;9.708;2024-03-02T04:03:47;32.60;;;13.55;;
60859;SDS011;46694;54.382;9.708;2024-03-02T04:06:16;32.88;;;13.63;;
60859;SDS011;46694;54.382;9.708;2024-03-02T04:08:43;33.00;;;13.63;;
60859;SDS011;46694;54.382;9.708;2024-03-02T04:11:08;32.70;;;14.27;;
60859;SDS011;46694;54.382;9.708;2024-03-02T04:13:34;33.95;;;16.02;;
60859;SDS011;46694;54.382;9.708;2024-03-02T04:16:00;30.38;;;14.27;;
60859;SDS011;46694;54.382;9.708;2024-03-02T04:18:26;33.75;;;14.18;;
60859;SDS011;46694;54.382;9.708;2024-03-02T04:20:51;33.80;;;15.07;;
60859;SDS011;46694;54.382;9.708;2024-03-02T04:23:17;33.58;;;14.43;;
60859;SDS011;46694;54.382;9.708;2024-03-02T04:25:43;33.63;;;14.95;;
60859;SDS011;46694;54.382;9.708;2024-03-02T04:28:09;36.30;;;14.50;;
60859;SDS011;46694;54.382;9.708;2024-03-02T04:30:34;35.45;;;15.02;;
60859;SDS011;46694;54.382;9.708;2024-03-02T04:33:01;33.85;;;15.27;;
60859;SDS011;46694;54.382;9.708;2024-03-02T04:35:27;38.05;;;15.02;;
60859;SDS011;46694;54.382;9.708;2024-03-02T04:37:53;37.47;;;15.68;;
60859;SDS011;46694;54.382;9.708;2024-03-02T04:40:19;38.00;;;15.25;;
60859;SDS011;46694;54.382;9.708;2024-03-02T04:42:45;38.85;;;16.33;;
60859;SDS011;46694;54.382;9.708;2024-03-02T04:45:11;41.63;;;16.40;;
60859;SDS011;46694;54.382;9.708;2024-03-02T04:47:36;39.22;;;16.90;;
60859;SDS011;46694;54.382;9.708;2024-03-02T04:50:02;41.67;;;16.83;;
60859;SDS011;46694;54.382;9.708;2024-03-02T04:52:29;47.47;;;18.45;;
60859;SDS011;46694;54.382;9.708;2024-03-02T04:54:54;39.35;;;16.33;;
60859;SDS011;46694;54.382;9.708;2024-03-02T04:57:44;45.08;;;17.17;;
60859;SDS011;46694;54.382;9.708;2024-03-02T05:00:11;36.95;;;16.25;;
60859;SDS011;46694;54.382;9.708;2024-03-02T05:02:37;39.50;;;16.13;;
60859;SDS011;46694;54.382;9.708;2024-03-02T05:05:03;34.47;;;15.40;;
60859;SDS011;46694;54.382;9.708;2024-03-02T05:07:29;38.20;;;15.95;;
60859;SDS011;46694;54.382;9.708;2024-03-02T05:09:55;41.83;;;15.43;;
60859;SDS011;46694;54.382;9.708;2024-03-02T05:12:22;41.95;;;16.98;;
60859;SDS011;46694;54.382;9.708;2024-03-02T05:15:06;43.60;;;17.00;;
60859;SDS011;46694;54.382;9.708;2024-03-02T05:17:33;35.28;;;16.20;;
60859;SDS011;46694;54.382;9.708;2024-03-02T05:19:58;36.80;;;16.88;;
60859;SDS011;46694;54.382;9.708;2024-03-02T05:22:24;40.80;;;15.98;;
60859;SDS011;46694;54.382;9.708;2024-03-02T05:24:50;43.88;;;17.83;;
60859;SDS011;46694;54.382;9.708;2024-03-02T05:27:16;40.40;;;16.75;;
60859;SDS011;46694;54.382;9.708;2024-03-02T05:29:41;43.78;;;16.45;;
60859;SDS011;46694;54.382;9.708;2024-03-02T05:32:07;40.17;;;17.25;;
60859;SDS011;46694;54.382;9.708;2024-03-02T05:34:33;43.28;;;16.73;;
60859;SDS011;46694;54.382;9.708;2024-03-02T05:37:00;41.78;;;15.70;;
60859;SDS011;46694;54.382;9.708;2024-03-02T05:39:26;36.85;;;15.93;;
60859;SDS011;46694;54.382;9.708;2024-03-02T05:41:52;37.15;;;16.10;;
60859;SDS011;46694;54.382;9.708;2024-03-02T05:44:18;35.03;;;16.08;;
60859;SDS011;46694;54.382;9.708;2024-03-02T05:46:44;38.78;;;17.25;;
60859;SDS011;46694;54.382;9.708;2024-03-02T05:49:11;33.03;;;14.60;;
60859;SDS011;46694;54.382;9.708;2024-03-02T05:51:37;38.35;;;16.70;;
60859;SDS011;46694;54.382;9.708;2024-03-02T05:54:02;37.30;;;16.25;;
60859;SDS011;46694;54.382;9.708;2024-03-02T05:56:28;36.53;;;15.70;;
60859;SDS011;46694;54.382;9.708;2024-03-02T05:58:54;35.15;;;15.90;;
60859;SDS011;46694;54.382;9.708;2024-03-02T06:01:33;33.65;;;15.00;;
60859;SDS011;46694;54.382;9.708;2024-03-02T06:03:59;37.90;;;16.52;;
60859;SDS011;46694;54.382;9.708;2024-03-02T06:06:24;34.92;;;16.42;;
60859;SDS011;46694;54.382;9.708;2024-03-02T06:08:51;40.55;;;15.82;;
60859;SDS011;46694;54.382;9.708;2024-03-02T06:11:17;39.15;;;16.08;;
60859;SDS011;46694;54.382;9.708;2024-03-02T06:13:44;34.05;;;14.73;;
60859;SDS011;46694;54.382;9.708;2024-03-02T06:16:13;38.45;;;16.45;;
60859;SDS011;46694;54.382;9.708;2024-03-02T06:18:39;37.05;;;15.32;;
60859;SDS011;46694;54.382;9.708;2024-03-02T06:21:05;40.85;;;16.75;;
60859;SDS011;46694;54.382;9.708;2024-03-02T06:23:31;43.65;;;17.55;;
60859;SDS011;46694;54.382;9.708;2024-03-02T06:25:57;37.97;;;16.38;;
60859;SDS011;46694;54.382;9.708;2024-03-02T06:28:23;40.53;;;18.35;;
60859;SDS011;46694;54.382;9.708;2024-03-02T06:30:48;36.97;;;15.88;;
60859;SDS011;46694;54.382;9.708;2024-03-02T06:33:14;41.05;;;15.75;;
60859;SDS011;46694;54.382;9.708;2024-03-02T06:35:41;38.08;;;16.33;;
60859;SDS011;46694;54.382;9.708;2024-03-02T06:38:07;37.47;;;15.85;;
60859;SDS011;46694;54.382;9.708;2024-03-02T06:40:32;37.70;;;16.75;;
60859;SDS011;46694;54.382;9.708;2024-03-02T06:42:59;39.95;;;16.23;;
60859;SDS011;46694;54.382;9.708;2024-03-02T06:45:25;42.03;;;16.67;;
60859;SDS011;46694;54.382;9.708;2024-03-02T06:47:50;38.97;;;16.10;;
60859;SDS011;46694;54.382;9.708;2024-03-02T06:50:16;37.75;;;16.60;;
60859;SDS011;46694;54.382;9.708;2024-03-02T06:52:42;37.28;;;15.82;;
60859;SDS011;46694;54.382;9.708;2024-03-02T06:55:08;45.35;;;17.35;;
60859;SDS011;46694;54.382;9.708;2024-03-02T06:57:34;37.45;;;16.48;;
60859;SDS011;46694;54.382;9.708;2024-03-02T07:00:00;42.03;;;18.02;;
60859;SDS011;46694;54.382;9.708;2024-03-02T07:02:26;41.55;;;16.15;;
60859;SDS011;46694;54.382;9.708;2024-03-02T07:04:55;38.83;;;16.75;;
60859;SDS011;46694;54.382;9.708;2024-03-02T07:07:21;38.45;;;16.30;;
60859;SDS011;46694;54.382;9.708;2024-03-02T07:09:47;38.13;;;16.23;;
60859;SDS011;46694;54.382;9.708;2024-03-02T07:12:13;36.45;;;16.02;;
60859;SDS011;46694;54.382;9.708;2024-03-02T07:14:39;37.83;;;16.50;;
60859;SDS011;46694;54.382;9.708;2024-03-02T07:17:23;40.58;;;17.67;;
60859;SDS011;46694;54.382;9.708;2024-03-02T07:19:50;37.28;;;16.00;;
60859;SDS011;46694;54.382;9.708;2024-03-02T07:22:15;42.15;;;16.60;;
60859;SDS011;46694;54.382;9.708;2024-03-02T07:24:41;41.25;;;17.60;;
60859;SDS011;46694;54.382;9.708;2024-03-02T07:27:08;40.50;;;17.55;;
60859;SDS011;46694;54.382;9.708;2024-03-02T07:29:35;39.50;;;17.10;;
60859;SDS011;46694;54.382;9.708;2024-03-02T07:32:01;42.45;;;16.55;;
60859;SDS011;46694;54.382;9.708;2024-03-02T07:34:27;43.38;;;17.70;;
60859;SDS011;46694;54.382;9.708;2024-03-02T07:36:53;40.58;;;17.67;;
60859;SDS011;46694;54.382;9.708;2024-03-02T07:39:19;44.60;;;17.73;;
60859;SDS011;46694;54.382;9.708;2024-03-02T07:41:45;37.58;;;16.63;;
60859;SDS011;46694;54.382;9.708;2024-03-02T07:44:11;41.42;;;16.55;;
60859;SDS011;46694;54.382;9.708;2024-03-02T07:46:43;42.65;;;16.83;;
60859;SDS011;46694;54.382;9.708;2024-03-02T07:49:11;41.38;;;17.08;;
60859;SDS011;46694;54.382;9.708;2024-03-02T07:51:39;38.08;;;16.27;;
60859;SDS011;46694;54.382;9.708;2024-03-02T07:54:05;38.78;;;15.60;;
60859;SDS011;46694;54.382;9.708;2024-03-02T07:56:31;38.78;;;17.13;;
60859;SDS011;46694;54.382;9.708;2024-03-02T07:58:57;40.03;;;16.13;;
60859;SDS011;46694;54.382;9.708;2024-03-02T08:01:33;38.10;;;16.23;;
60859;SDS011;46694;54.382;9.708;2024-03-02T08:04:00;35.95;;;15.82;;
60859;SDS011;46694;54.382;9.708;2024-03-02T08:06:28;38.00;;;16.77;;
60859;SDS011;46694;54.382;9.708;2024-03-02T08:08:55;33.13;;;15.55;;
60859;SDS011;46694;54.382;9.708;2024-03-02T08:11:26;37.15;;;15.70;;
60859;SDS011;46694;54.382;9.708;2024-03-02T08:13:52;32.45;;;15.13;;
60859;SDS011;46694;54.382;9.708;2024-03-02T08:16:20;36.13;;;15.82;;
60859;SDS011;46694;54.382;9.708;2024-03-02T08:18:50;36.13;;;14.77;;
60859;SDS011;46694;54.382;9.708;2024-03-02T08:21:17;35.63;;;16.58;;
60859;SDS011;46694;54.382;9.708;2024-03-02T08:23:43;34.53;;;14.68;;
60859;SDS011;46694;54.382;9.708;2024-03-02T08:26:09;34.88;;;15.35;;
60859;SDS011;46694;54.382;9.708;2024-03-02T08:28:36;31.38;;;14.40;;
60859;SDS011;46694;54.382;9.708;2024-03-02T08:31:05;31.02;;;14.68;;
60859;SDS011;46694;54.382;9.708;2024-03-02T08:33:32;33.13;;;14.30;;
60859;SDS011;46694;54.382;9.708;2024-03-02T08:35:58;34.22;;;14.50;;
60859;SDS011;46694;54.382;9.708;2024-03-02T08:38:24;28.30;;;13.55;;
60859;SDS011;46694;54.382;9.708;2024-03-02T08:40:51;31.77;;;13.98;;
60859;SDS011;46694;54.382;9.708;2024-03-02T08:43:17;32.85;;;15.07;;
60859;SDS011;46694;54.382;9.708;2024-03-02T08:45:43;31.67;;;14.02;;
60859;SDS011;46694;54.382;9.708;2024-03-02T08:48:09;28.80;;;14.80;;
60859;SDS011;46694;54.382;9.708;2024-03-02T08:50:35;32.13;;;14.25;;
60859;SDS011;46694;54.382;9.708;2024-03-02T08:53:03;30.20;;;14.32;;
60859;SDS011;46694;54.382;9.708;2024-03-02T08:55:29;27.80;;;14.18;;
60859;SDS011;46694;54.382;9.708;2024-03-02T08:57:55;33.80;;;14.77;;
60859;SDS011;46694;54.382;9.708;2024-03-02T09:00:21;32.83;;;15.30;;
60859;SDS011;46694;54.382;9.708;2024-03-02T09:02:48;31.15;;;14.90;;
60859;SDS011;46694;54.382;9.708;2024-03-02T09:05:14;30.70;;;13.80;;
60859;SDS011;46694;54.382;9.708;2024-03-02T09:07:40;29.38;;;13.63;;
60859;SDS011;46694;54.382;9.708;2024-03-02T09:10:07;32.35;;;14.65;;
60859;SDS011;46694;54.382;9.708;2024-03-02T09:12:34;31.90;;;14.48;;
60859;SDS011;46694;54.382;9.708;2024-03-02T09:15:00;30.85;;;14.02;;
60859;SDS011;46694;54.382;9.708;2024-03-02T09:17:31;31.20;;;12.93;;
60859;SDS011;46694;54.382;9.708;2024-03-02T09:19:57;28.60;;;13.88;;
60859;SDS011;46694;54.382;9.708;2024-03-02T09:22:22;28.90;;;13.57;;
60859;SDS011;46694;54.382;9.708;2024-03-02T09:24:48;29.17;;;13.65;;
60859;SDS011;46694;54.382;9.708;2024-03-02T09:27:14;25.75;;;12.77;;
60859;SDS011;46694;54.382;9.708;2024-03-02T09:29:40;29.10;;;13.05;;
60859;SDS011;46694;54.382;9.708;2024-03-02T09:32:06;31.25;;;12.82;;
60859;SDS011;46694;54.382;9.708;2024-03-02T09:34:33;27.45;;;13.30;;
60859;SDS011;46694;54.382;9.708;2024-03-02T09:36:59;25.88;;;12.48;;
60859;SDS011;46694;54.382;9.708;2024-03-02T09:39:25;25.17;;;12.95;;
60859;SDS011;46694;54.382;9.708;2024-03-02T09:41:51;29.20;;;12.25;;
60859;SDS011;46694;54.382;9.708;2024-03-02T09:44:17;24.25;;;12.50;;
60859;SDS011;46694;54.382;9.708;2024-03-02T09:46:43;23.15;;;11.73;;
60859;SDS011;46694;54.382;9.708;2024-03-02T09:49:12;24.27;;;11.90;;
60859;SDS011;46694;54.382;9.708;2024-03-02T09:51:38;23.83;;;11.88;;
60859;SDS011;46694;54.382;9.708;2024-03-02T09:54:07;25.25;;;11.77;;
60859;SDS011;46694;54.382;9.708;2024-03-02T09:56:33;22.27;;;10.88;;
60859;SDS011;46694;54.382;9.708;2024-03-02T09:58:59;23.60;;;11.73;;
60859;SDS011;46694;54.382;9.708;2024-03-02T10:01:25;23.80;;;11.35;;
60859;SDS011;46694;54.382;9.708;2024-03-02T10:03:51;25.77;;;12.35;;
60859;SDS011;46694;54.382;9.708;2024-03-02T10:06:28;22.42;;;10.75;;
60859;SDS011;46694;54.382;9.708;2024-03-02T10:08:54;23.73;;;11.80;;
60859;SDS011;46694;54.382;9.708;2024-03-02T10:11:25;23.27;;;11.52;;
60859;SDS011;46694;54.382;9.708;2024-03-02T10:14:06;22.73;;;11.27;;
60859;SDS011;46694;54.382;9.708;2024-03-02T10:16:35;19.90;;;10.98;;
60859;SDS011;46694;54.382;9.708;2024-03-02T10:21:46;25.33;;;11.73;;
60859;SDS011;46694;54.382;9.708;2024-03-02T10:24:16;23.73;;;11.65;;
60859;SDS011;46694;54.382;9.708;2024-03-02T10:26:43;21.00;;;10.98;;
60859;SDS011;46694;54.382;9.708;2024-03-02T10:29:09;22.08;;;10.80;;
60859;SDS011;46694;54.382;9.708;2024-03-02T10:31:39;23.02;;;11.02;;
60859;SDS011;46694;54.382;9.708;2024-03-02T10:34:07;23.52;;;10.88;;
60859;SDS011;46694;54.382;9.708;2024-03-02T10:36:34;22.25;;;10.85;;
60859;SDS011;46694;54.382;9.708;2024-03-02T10:39:05;20.42;;;10.95;;
60859;SDS011;46694;54.382;9.708;2024-03-02T10:41:35;20.90;;;10.77;;
60859;SDS011;46694;54.382;9.708;2024-03-02T10:44:03;22.30;;;11.15;;
60859;SDS011;46694;54.382;9.708;2024-03-02T10:46:37;22.23;;;10.32;;
60859;SDS011;46694;54.382;9.708;2024-03-02T10:49:04;19.40;;;9.50;;
60859;SDS011;46694;54.382;9.708;2024-03-02T10:51:31;21.33;;;9.98;;
60859;SDS011;46694;54.382;9.708;2024-03-02T10:53:59;18.38;;;9.77;;
60859;SDS011;46694;54.382;9.708;2024-03-02T10:56:39;19.15;;;9.93;;
60859;SDS011;46694;54.382;9.708;2024-03-02T11:01:58;20.38;;;9.82;;
60859;SDS011;46694;54.382;9.708;2024-03-02T11:04:26;20.05;;;9.43;;
60859;SDS011;46694;54.382;9.708;2024-03-02T11:07:07;18.52;;;8.93;;
60859;SDS011;46694;54.382;9.708;2024-03-02T11:09:37;21.65;;;9.40;;
60859;SDS011;46694;54.382;9.708;2024-03-02T11:12:19;19.83;;;10.88;;
60859;SDS011;46694;54.382;9.708;2024-03-02T11:15:02;21.27;;;10.02;;
60859;SDS011;46694;54.382;9.708;2024-03-02T11:17:35;18.77;;;9.38;;
60859;SDS011;46694;54.382;9.708;2024-03-02T11:20:03;21.23;;;10.63;;
60859;SDS011;46694;54.382;9.708;2024-03-02T11:22:30;21.23;;;10.00;;
60859;SDS011;46694;54.382;9.708;2024-03-02T11:24:56;22.42;;;10.73;;
60859;SDS011;46694;54.382;9.708;2024-03-02T11:33:05;20.90;;;9.60;;
60859;SDS011;46694;54.382;9.708;2024-03-02T11:35:41;22.30;;;9.98;;
60859;SDS011;46694;54.382;9.708;2024-03-02T11:38:09;17.75;;;9.35;;
60859;SDS011;46694;54.382;9.708;2024-03-02T11:40:35;19.88;;;9.90;;
60859;SDS011;46694;54.382;9.708;2024-03-02T11:43:01;20.73;;;10.10;;
60859;SDS011;46694;54.382;9.708;2024-03-02T11:45:27;21.98;;;10.15;;
60859;SDS011;46694;54.382;9.708;2024-03-02T11:47:54;19.90;;;10.23;;
60859;SDS011;46694;54.382;9.708;2024-03-02T11:50:29;22.05;;;10.25;;
60859;SDS011;46694;54.382;9.708;2024-03-02T11:52:57;21.27;;;11.00;;
60859;SDS011;46694;54.382;9.708;2024-03-02T11:55:25;20.52;;;10.05;;
60859;SDS011;46694;54.382;9.708;2024-03-02T11:57:54;20.00;;;10.30;;
60859;SDS011;46694;54.382;9.708;2024-03-02T12:00:20;19.75;;;10.35;;
60859;SDS011;46694;54.382;9.708;2024-03-02T12:02:48;19.63;;;11.55;;
60859;SDS011;46694;54.382;9.708;2024-03-02T12:05:33;21.33;;;10.63;;
60859;SDS011;46694;54.382;9.708;2024-03-02T12:08:01;20.02;;;11.15;;
60859;SDS011;46694;54.382;9.708;2024-03-02T12:10:29;20.48;;;11.13;;
60859;SDS011;46694;54.382;9.708;2024-03-02T12:13:00;20.05;;;9.43;;
60859;SDS011;46694;54.382;9.708;2024-03-02T12:15:28;22.42;;;10.80;;
60859;SDS011;46694;54.382;9.708;2024-03-02T12:17:57;18.92;;;9.90;;
60859;SDS011;46694;54.382;9.708;2024-03-02T12:20:25;21.48;;;10.13;;
60859;SDS011;46694;54.382;9.708;2024-03-02T12:22:54;20.80;;;10.23;;
60859;SDS011;46694;54.382;9.708;2024-03-02T12:25:23;19.73;;;10.38;;
60859;SDS011;46694;54.382;9.708;2024-03-02T12:27:51;21.88;;;11.45;;
60859;SDS011;46694;54.382;9.708;2024-03-02T12:30:19;23.65;;;11.68;;
60859;SDS011;46694;54.382;9.708;2024-03-02T12:32:46;23.35;;;12.50;;
60859;SDS011;46694;54.382;9.708;2024-03-02T12:35:12;22.13;;;12.10;;
60859;SDS011;46694;54.382;9.708;2024-03-02T12:40:09;22.55;;;11.52;;
60859;SDS011;46694;54.382;9.708;2024-03-02T12:42:37;19.48;;;10.48;;
60859;SDS011;46694;54.382;9.708;2024-03-02T12:45:03;23.08;;;11.13;;
60859;SDS011;46694;54.382;9.708;2024-03-02T12:47:31;22.70;;;10.68;;
60859;SDS011;46694;54.382;9.708;2024-03-02T12:49:57;24.52;;;11.40;;
60859;SDS011;46694;54.382;9.708;2024-03-02T12:52:24;21.17;;;10.77;;
60859;SDS011;46694;54.382;9.708;2024-03-02T12:54:50;19.00;;;10.45;;
60859;SDS011;46694;54.382;9.708;2024-03-02T12:57:17;20.60;;;9.40;;
60859;SDS011;46694;54.382;9.708;2024-03-02T12:59:47;18.52;;;9.32;;
60859;SDS011;46694;54.382;9.708;2024-03-02T13:02:19;19.08;;;9.25;;
60859;SDS011;46694;54.382;9.708;2024-03-02T13:04:52;20.40;;;9.05;;
60859;SDS011;46694;54.382;9.708;2024-03-02T13:07:22;18.77;;;10.07;;
60859;SDS011;46694;54.382;9.708;2024-03-02T13:09:50;18.52;;;9.45;;
60859;SDS011;46694;54.382;9.708;2024-03-02T13:12:16;19.23;;;9.15;;
60859;SDS011;46694;54.382;9.708;2024-03-02T13:14:43;17.98;;;9.07;;
60859;SDS011;46694;54.382;9.708;2024-03-02T13:17:09;17.88;;;9.50;;
60859;SDS011;46694;54.382;9.708;2024-03-02T13:19:35;18.33;;;9.32;;
60859;SDS011;46694;54.382;9.708;2024-03-02T13:22:01;17.23;;;7.93;;
60859;SDS011;46694;54.382;9.708;2024-03-02T13:24:28;20.08;;;9.02;;
60859;SDS011;46694;54.382;9.708;2024-03-02T13:26:55;15.73;;;8.40;;
60859;SDS011;46694;54.382;9.708;2024-03-02T13:29:23;17.92;;;8.32;;
60859;SDS011;46694;54.382;9.708;2024-03-02T13:31:49;17.08;;;8.43;;
60859;SDS011;46694;54.382;9.708;2024-03-02T13:34:16;16.48;;;7.72;;
60859;SDS011;46694;54.382;9.708;2024-03-02T13:36:42;15.55;;;7.85;;
60859;SDS011;46694;54.382;9.708;2024-03-02T13:39:08;14.68;;;7.80;;
60859;SDS011;46694;54.382;9.708;2024-03-02T13:41:36;16.33;;;8.48;;
60859;SDS011;46694;54.382;9.708;2024-03-02T13:44:02;15.40;;;7.80;;
60859;SDS011;46694;54.382;9.708;2024-03-02T13:46:28;15.13;;;7.60;;
60859;SDS011;46694;54.382;9.708;2024-03-02T13:48:54;15.63;;;7.90;;
60859;SDS011;46694;54.382;9.708;2024-03-02T13:51:21;17.45;;;8.00;;
60859;SDS011;46694;54.382;9.708;2024-03-02T13:53:47;16.90;;;7.38;;
60859;SDS011;46694;54.382;9.708;2024-03-02T13:56:12;14.27;;;7.20;;
60859;SDS011;46694;54.382;9.708;2024-03-02T13:58:38;15.05;;;8.02;;
60859;SDS011;46694;54.382;9.708;2024-03-02T14:01:04;19.60;;;7.45;;
60859;SDS011;46694;54.382;9.708;2024-03-02T14:03:31;13.80;;;6.88;;
60859;SDS011;46694;54.382;9.708;2024-03-02T14:05:56;14.38;;;7.20;;
60859;SDS011;46694;54.382;9.708;2024-03-02T14:08:23;17.58;;;7.50;;
60859;SDS011;46694;54.382;9.708;2024-03-02T14:10:49;14.57;;;7.60;;
60859;SDS011;46694;54.382;9.708;2024-03-02T14:13:15;15.68;;;8.05;;
60859;SDS011;46694;54.382;9.708;2024-03-02T14:15:41;15.25;;;6.40;;
60859;SDS011;46694;54.382;9.708;2024-03-02T14:18:07;14.30;;;6.57;;
60859;SDS011;46694;54.382;9.708;2024-03-02T14:20:35;14.27;;;7.28;;
60859;SDS011;46694;54.382;9.708;2024-03-02T14:23:02;15.15;;;7.38;;
60859;SDS011;46694;54.382;9.708;2024-03-02T14:25:28;17.02;;;6.97;;
60859;SDS011;46694;54.382;9.708;2024-03-02T14:27:59;12.20;;;6.30;;
60859;SDS011;46694;54.382;9.708;2024-03-02T14:30:25;14.10;;;7.30;;
60859;SDS011;46694;54.382;9.708;2024-03-02T14:32:51;13.25;;;6.30;;
60859;SDS011;46694;54.382;9.708;2024-03-02T14:35:16;13.90;;;6.38;;
60859;SDS011;46694;54.382;9.708;2024-03-02T14:37:43;13.32;;;6.68;;
60859;SDS011;46694;54.382;9.708;2024-03-02T14:40:09;15.00;;;6.97;;
60859;SDS011;46694;54.382;9.708;2024-03-02T14:42:37;12.00;;;5.78;;
60859;SDS011;46694;54.382;9.708;2024-03-02T14:45:03;12.02;;;5.70;;